Time;durP1;ratioP1;P1;durP2;ratioP2;P2;SDS_P1;SDS_P2;PMS_P1;PMS_P2;Temp;Humidity;BMP_temperature;BMP_pressure;BME280_temperature;BME280_humidity;BME280_pressure;Samples;Min_cycle;Max_cycle;Signal;HPM_P1;HPM_P2
2023/05/10 00:02:33;;;;;;;;;;;9.50;1.00;;;;;;5121336;28;19926;-70
2023/05/10 00:05:13;;;;;;;;;;;9.50;1.00;;;;;;5131176;28;19929;-71
2023/05/10 00:07:48;;;;;;;;;;;9.40;1.00;;;;;;5121143;28;19910;-67
2023/05/10 00:10:22;;;;;;;;;;;9.40;1.00;;;;;;5105218;29;19914;-72
2023/05/10 00:12:53;;;;;;;;;;;9.30;1.00;;;;;;5095792;28;20446;-69
2023/05/10 00:15:31;;;;;;;;;;;9.30;1.00;;;;;;5136473;28;19922;-71
2023/05/10 00:18:06;;;;;;;;;;;9.20;1.00;;;;;;5157268;28;19945;-72
2023/05/10 00:20:40;;;;;;;;;;;9.10;1.00;;;;;;5138150;28;19918;-69
2023/05/10 00:23:12;;;;;;;;;;;9.10;1.00;;;;;;5141454;28;20259;-67
2023/05/10 00:25:50;;;;;;;;;;;9.20;1.00;;;;;;5161963;28;19920;-70
2023/05/10 00:28:24;;;;;;;;;;;9.00;1.00;;;;;;5129117;28;19918;-72
2023/05/10 00:30:58;;;;;;;;;;;9.00;1.00;;;;;;5111239;28;19914;-70
2023/05/10 00:33:32;;;;;;;;;;;8.90;1.00;;;;;;5139738;28;19928;-70
2023/05/10 00:36:09;;;;;;;;;;;9.00;1.00;;;;;;5133878;28;19928;-71
2023/05/10 00:38:46;;;;;;;;;;;9.00;1.00;;;;;;5108078;28;19918;-66
2023/05/10 00:41:17;;;;;;;;;;;9.00;1.00;;;;;;5108699;28;19921;-68
2023/05/10 00:43:49;;;;;;;;;;;9.00;1.00;;;;;;5140467;28;20156;-71
2023/05/10 00:46:21;;;;;;;;;;;8.90;1.00;;;;;;5136191;28;20108;-71
2023/05/10 00:48:54;;;;;;;;;;;8.80;1.00;;;;;;5143125;28;19918;-67
2023/05/10 00:51:30;;;;;;;;;;;8.70;1.00;;;;;;5109194;28;20406;-69
2023/05/10 00:54:02;;;;;;;;;;;8.70;1.00;;;;;;5111445;28;19924;-70
2023/05/10 00:56:36;;;;;;;;;;;8.60;1.00;;;;;;5123968;28;19929;-72
2023/05/10 00:59:11;;;;;;;;;;;8.70;1.00;;;;;;5121035;28;19918;-70
2023/05/10 01:01:45;;;;;;;;;;;8.70;1.00;;;;;;5135029;23;20196;-93
2023/05/10 01:04:17;;;;;;;;;;;8.60;1.00;;;;;;5107329;29;19928;-93
2023/05/10 01:06:48;;;;;;;;;;;8.60;1.00;;;;;;5089412;28;19913;-93
2023/05/10 01:09:23;;;;;;;;;;;8.60;1.00;;;;;;5158369;28;19906;-93
2023/05/10 01:11:55;;;;;;;;;;;8.60;1.00;;;;;;5142973;28;19905;-95
2023/05/10 01:14:27;;;;;;;;;;;8.70;1.00;;;;;;5141993;28;19906;-94
2023/05/10 01:17:01;;;;;;;;;;;8.70;1.00;;;;;;5141171;28;19905;-93
2023/05/10 01:19:37;;;;;;;;;;;8.60;1.00;;;;;;5139003;28;20267;-93
2023/05/10 01:22:27;;;;;;;;;;;8.70;1.00;;;;;;5140718;28;20134;-92
2023/05/10 01:25:07;;;;;;;;;;;8.70;1.00;;;;;;5140442;28;19910;-93
2023/05/10 01:28:00;;;;;;;;;;;8.60;1.00;;;;;;5157323;28;20103;-93
2023/05/10 01:30:56;;;;;;;;;;;8.70;1.00;;;;;;5173259;28;20076;-94
2023/05/10 01:33:56;;;;;;;;;;;8.70;1.00;;;;;;5157076;28;20131;-92
2023/05/10 01:36:37;;;;;;;;;;;8.70;1.00;;;;;;5157254;28;19906;-93
2023/05/10 01:39:17;;;;;;;;;;;8.70;1.00;;;;;;5141315;28;19905;-92
2023/05/10 01:42:10;;;;;;;;;;;8.60;1.00;;;;;;5157598;28;19912;-92
2023/05/10 01:45:13;;;;;;;;;;;8.60;1.00;;;;;;5141806;28;19906;-92
2023/05/10 01:48:09;;;;;;;;;;;8.50;1.00;;;;;;5141373;28;20098;-93
2023/05/10 01:50:44;;;;;;;;;;;8.60;1.00;;;;;;5156132;28;19906;-92
2023/05/10 01:53:23;;;;;;;;;;;8.60;1.00;;;;;;5146330;28;20094;-94
2023/05/10 01:55:58;;;;;;;;;;;8.60;1.00;;;;;;5143109;28;19906;-93
2023/05/10 01:58:31;;;;;;;;;;;8.50;1.00;;;;;;5140045;28;20095;-92
2023/05/10 02:01:06;;;;;;;;;;;8.50;1.00;;;;;;5142467;28;19912;-94
2023/05/10 02:03:59;;;;;;;;;;;8.40;1.00;;;;;;5169332;28;20187;-91
2023/05/10 02:06:53;;;;;;;;;;;8.20;1.00;;;;;;5150681;28;20195;-92
2023/05/10 02:09:26;;;;;;;;;;;8.10;1.00;;;;;;5159188;28;20198;-92
2023/05/10 02:12:00;;;;;;;;;;;8.10;1.00;;;;;;5158911;28;19905;-92
2023/05/10 02:14:38;;;;;;;;;;;8.10;1.00;;;;;;5143329;28;19906;-92
2023/05/10 02:17:16;;;;;;;;;;;8.10;1.00;;;;;;5154280;28;20414;-92
2023/05/10 02:19:48;;;;;;;;;;;8.10;1.00;;;;;;5155087;28;19912;-92
2023/05/10 02:22:28;;;;;;;;;;;8.10;1.00;;;;;;5155098;28;19906;-93
2023/05/10 02:25:06;;;;;;;;;;;8.00;1.00;;;;;;5146787;28;19910;-91
2023/05/10 02:27:41;;;;;;;;;;;8.00;1.00;;;;;;5120076;29;19917;-94
2023/05/10 02:30:13;;;;;;;;;;;8.10;1.00;;;;;;5135626;28;19918;-93
2023/05/10 02:32:44;;;;;;;;;;;8.10;1.00;;;;;;5117564;28;19910;-91
2023/05/10 02:35:19;;;;;;;;;;;8.10;1.00;;;;;;5122599;28;19931;-92
2023/05/10 02:37:59;;;;;;;;;;;8.00;1.00;;;;;;5122455;28;19929;-92
2023/05/10 02:40:32;;;;;;;;;;;8.00;1.00;;;;;;5156530;28;19912;-94
2023/05/10 02:43:07;;;;;;;;;;;8.00;1.00;;;;;;5157392;28;19912;-93
2023/05/10 02:46:03;;;;;;;;;;;8.00;1.00;;;;;;5141442;28;19910;-94
2023/05/10 02:48:35;;;;;;;;;;;8.00;1.00;;;;;;5155002;28;19943;-91
2023/05/10 02:51:17;;;;;;;;;;;7.90;1.00;;;;;;5136941;28;19913;-91
2023/05/10 02:53:49;;;;;;;;;;;7.80;1.00;;;;;;5157036;28;20209;-94
2023/05/10 02:56:33;;;;;;;;;;;7.80;1.00;;;;;;5156930;28;19906;-92
2023/05/10 02:59:12;;;;;;;;;;;7.80;1.00;;;;;;5141330;28;20210;-93
2023/05/10 03:01:44;;;;;;;;;;;7.80;1.00;;;;;;5140786;28;19910;-93
2023/05/10 03:04:17;;;;;;;;;;;7.70;1.00;;;;;;5141135;28;19928;-94
2023/05/10 03:06:51;;;;;;;;;;;7.70;11.10;;;;;;5143801;28;19921;-94
2023/05/10 03:09:25;;;;;;;;;;;7.80;1.00;;;;;;5137772;29;20177;-94
2023/05/10 03:12:27;;;;;;;;;;;7.80;1.00;;;;;;5136573;29;20095;-94
2023/05/10 03:15:24;;;;;;;;;;;7.80;1.00;;;;;;5134055;29;19906;-95
2023/05/10 03:18:05;;;;;;;;;;;7.90;1.00;;;;;;5137158;28;19906;-95
2023/05/10 03:20:49;;;;;;;;;;;7.80;1.00;;;;;;5137182;28;19997;-93
2023/05/10 03:23:36;;;;;;;;;;;7.90;1.00;;;;;;5136920;29;19906;-94
2023/05/10 03:29:36;;;;;;;;;;;7.80;2.60;;;;;;5138246;28;20253;-93
2023/05/10 03:32:09;;;;;;;;;;;7.80;29.40;;;;;;5136771;29;19912;-93
2023/05/10 03:34:42;;;;;;;;;;;7.80;39.40;;;;;;5154312;28;20183;-93
2023/05/10 03:37:16;;;;;;;;;;;7.80;36.50;;;;;;5154902;28;19910;-93
2023/05/10 03:39:47;;;;;;;;;;;7.90;33.20;;;;;;5156802;28;19906;-91
2023/05/10 03:42:21;;;;;;;;;;;7.90;24.50;;;;;;5140011;29;19910;-94
2023/05/10 03:44:52;;;;;;;;;;;8.00;26.60;;;;;;5140288;29;19921;-94
2023/05/10 03:47:26;;;;;;;;;;;8.00;34.20;;;;;;5156937;28;19910;-94
2023/05/10 03:49:59;;;;;;;;;;;8.10;24.40;;;;;;5156167;28;19906;-92
2023/05/10 03:52:38;;;;;;;;;;;8.10;7.70;;;;;;5122741;29;19911;-91
2023/05/10 03:55:10;;;;;;;;;;;8.20;1.00;;;;;;5123615;29;19908;-92
2023/05/10 03:57:49;;;;;;;;;;;8.30;1.00;;;;;;5122101;29;19906;-92
2023/05/10 04:00:20;;;;;;;;;;;8.40;1.00;;;;;;5139170;28;19907;-94
2023/05/10 04:02:52;;;;;;;;;;;8.50;1.00;;;;;;5124169;29;20191;-93
2023/05/10 04:05:23;;;;;;;;;;;8.70;1.00;;;;;;5111072;28;20114;-90
2023/05/10 04:07:59;;;;;;;;;;;8.80;1.00;;;;;;5138043;29;19906;-92
2023/05/10 04:10:31;;;;;;;;;;;8.90;1.00;;;;;;5122144;29;19913;-93
2023/05/10 04:13:07;;;;;;;;;;;9.10;1.00;;;;;;5105516;29;19911;-92
2023/05/10 04:15:38;;;;;;;;;;;9.20;1.00;;;;;;5120953;29;19912;-91
2023/05/10 04:18:09;;;;;;;;;;;9.40;1.00;;;;;;5121073;29;19913;-94
2023/05/10 04:20:44;;;;;;;;;;;9.50;1.00;;;;;;5124509;28;19906;-92
2023/05/10 04:23:18;;;;;;;;;;;9.70;1.00;;;;;;5143636;28;20108;-94
2023/05/10 04:25:51;;;;;;;;;;;9.90;1.00;;;;;;5145425;29;19915;-91
2023/05/10 04:28:28;;;;;;;;;;;10.10;1.00;;;;;;5143136;28;19917;-93
2023/05/10 04:31:06;;;;;;;;;;;10.30;1.00;;;;;;5137366;28;19906;-92
2023/05/10 04:33:37;;;;;;;;;;;10.40;1.00;;;;;;5139306;29;20289;-90
2023/05/10 04:36:14;;;;;;;;;;;10.60;1.00;;;;;;5122569;29;19911;-91
2023/05/10 04:38:48;;;;;;;;;;;10.80;1.00;;;;;;5139410;29;19906;-93
2023/05/10 04:41:22;;;;;;;;;;;11.00;1.00;;;;;;5124031;29;19912;-91
2023/05/10 04:43:55;;;;;;;;;;;11.20;1.00;;;;;;5124065;29;19913;-92
2023/05/10 04:46:26;;;;;;;;;;;11.40;1.00;;;;;;5123579;29;19910;-93
2023/05/10 04:48:59;;;;;;;;;;;11.60;1.00;;;;;;5123754;29;19906;-91
2023/05/10 04:51:31;;;;;;;;;;;11.60;1.00;;;;;;5124392;29;19906;-92
2023/05/10 04:54:03;;;;;;;;;;;11.70;1.00;;;;;;5124682;29;19906;-92
2023/05/10 04:56:34;;;;;;;;;;;11.80;1.00;;;;;;5124102;29;19912;-93
2023/05/10 04:59:05;;;;;;;;;;;11.90;1.00;;;;;;5123693;29;19907;-93
2023/05/10 05:01:37;;;;;;;;;;;12.10;1.00;;;;;;5124175;29;20095;-93
2023/05/10 05:04:08;;;;;;;;;;;12.20;1.00;;;;;;5123681;29;19928;-94
2023/05/10 05:06:39;;;;;;;;;;;12.20;1.00;;;;;;5113508;29;19921;-93
2023/05/10 05:09:17;;;;;;;;;;;12.40;1.00;;;;;;5123351;29;20098;-94
2023/05/10 05:11:51;;;;;;;;;;;12.60;1.00;;;;;;5123497;29;19907;-95
2023/05/10 05:14:24;;;;;;;;;;;12.80;1.00;;;;;;5139265;29;20075;-93
2023/05/10 05:16:58;;;;;;;;;;;13.20;1.00;;;;;;5132603;28;19910;-92
2023/05/10 05:19:31;;;;;;;;;;;13.50;1.00;;;;;;5147346;28;19907;-95
2023/05/10 05:22:09;;;;;;;;;;;13.60;1.00;;;;;;5156732;28;19906;-92
2023/05/10 05:24:45;;;;;;;;;;;13.90;1.00;;;;;;5158815;28;19913;-94
2023/05/10 05:27:20;;;;;;;;;;;14.20;1.00;;;;;;5154663;28;19917;-94
2023/05/10 05:29:58;;;;;;;;;;;14.40;1.00;;;;;;5154755;28;19913;-92
2023/05/10 05:32:30;;;;;;;;;;;14.40;1.00;;;;;;5139453;29;19910;-93
2023/05/10 05:35:04;;;;;;;;;;;14.30;1.00;;;;;;5138753;29;19910;-93
2023/05/10 05:37:35;;;;;;;;;;;14.40;1.00;;;;;;5175013;28;20183;-92
2023/05/10 05:40:15;;;;;;;;;;;14.60;1.00;;;;;;5154747;28;19906;-93
2023/05/10 05:42:46;;;;;;;;;;;15.00;1.00;;;;;;5154183;28;19913;-92
2023/05/10 05:45:17;;;;;;;;;;;15.30;1.00;;;;;;5155503;28;19907;-93
2023/05/10 05:47:49;;;;;;;;;;;15.60;1.00;;;;;;5137561;29;19910;-94
2023/05/10 05:50:20;;;;;;;;;;;15.70;1.00;;;;;;5139475;29;19906;-94
2023/05/10 05:52:57;;;;;;;;;;;15.80;1.00;;;;;;5154433;28;20193;-95
2023/05/10 05:55:31;;;;;;;;;;;16.10;1.00;;;;;;5169706;28;19906;-92
2023/05/10 05:58:03;;;;;;;;;;;16.30;1.00;;;;;;5139448;29;19906;-92
2023/05/10 06:00:36;;;;;;;;;;;16.00;1.00;;;;;;5138807;29;19911;-93
2023/05/10 06:03:11;;;;;;;;;;;16.00;1.00;;;;;;5153786;28;19910;-94
2023/05/10 06:05:44;;;;;;;;;;;16.10;1.00;;;;;;5163334;28;20144;-94
2023/05/10 06:08:19;;;;;;;;;;;15.90;1.00;;;;;;5153318;28;19907;-93
2023/05/10 06:10:50;;;;;;;;;;;16.20;1.00;;;;;;5137021;29;19906;-94
2023/05/10 06:13:21;;;;;;;;;;;16.10;1.00;;;;;;5137269;29;19910;-90
2023/05/10 06:15:59;;;;;;;;;;;16.30;1.00;;;;;;5153016;28;19906;-93
2023/05/10 06:18:34;;;;;;;;;;;16.50;1.00;;;;;;5153272;28;19906;-92
2023/05/10 06:21:05;;;;;;;;;;;16.60;1.00;;;;;;5153440;28;19906;-93
2023/05/10 06:23:39;;;;;;;;;;;16.70;1.00;;;;;;5137300;29;20091;-92
2023/05/10 06:26:29;;;;;;;;;;;16.80;1.00;;;;;;5168713;28;19911;-94
2023/05/10 06:29:06;;;;;;;;;;;16.80;1.00;;;;;;5153536;28;19913;-92
2023/05/10 06:31:49;;;;;;;;;;;17.20;1.00;;;;;;5152809;28;19910;-93
2023/05/10 06:34:23;;;;;;;;;;;17.00;1.00;;;;;;5143671;28;19919;-93
2023/05/10 06:36:57;;;;;;;;;;;16.80;1.00;;;;;;5133115;29;19917;-92
2023/05/10 06:39:29;;;;;;;;;;;17.00;1.00;;;;;;5136770;28;19906;-91
2023/05/10 06:42:08;;;;;;;;;;;17.00;1.00;;;;;;5134059;29;19906;-92
2023/05/10 06:44:44;;;;;;;;;;;17.20;1.00;;;;;;5145652;28;19906;-91
2023/05/10 06:47:18;;;;;;;;;;;17.50;1.00;;;;;;5132962;29;19910;-93
2023/05/10 06:50:00;;;;;;;;;;;17.70;1.00;;;;;;5146931;28;19906;-92
2023/05/10 06:52:31;;;;;;;;;;;17.90;1.00;;;;;;5132386;29;19910;-92
2023/05/10 06:55:08;;;;;;;;;;;17.70;1.00;;;;;;5148297;28;19909;-91
2023/05/10 06:57:42;;;;;;;;;;;17.60;1.00;;;;;;5117001;29;19916;-92
2023/05/10 07:00:14;;;;;;;;;;;17.40;1.00;;;;;;5148197;28;20091;-91
2023/05/10 07:02:45;;;;;;;;;;;17.50;1.00;;;;;;5132227;28;19917;-92
2023/05/10 07:05:17;;;;;;;;;;;17.50;1.00;;;;;;5124640;28;19911;-93
2023/05/10 07:07:48;;;;;;;;;;;17.70;1.00;;;;;;5122706;29;19915;-92
2023/05/10 07:10:23;;;;;;;;;;;17.60;1.00;;;;;;5109037;28;19916;-91
2023/05/10 07:13:04;;;;;;;;;;;17.50;1.00;;;;;;5115658;29;20186;-91
2023/05/10 07:15:38;;;;;;;;;;;17.80;1.00;;;;;;5110122;29;19910;-91
2023/05/10 07:18:10;;;;;;;;;;;17.90;1.00;;;;;;5100465;29;19920;-91
2023/05/10 07:20:41;;;;;;;;;;;18.20;1.00;;;;;;5111240;29;19914;-91
2023/05/10 07:23:20;;;;;;;;;;;18.10;1.00;;;;;;5110487;28;19906;-93
2023/05/10 07:25:54;;;;;;;;;;;18.30;1.00;;;;;;5106185;28;19984;-92
2023/05/10 07:28:28;;;;;;;;;;;18.10;1.00;;;;;;5117385;29;19907;-93
2023/05/10 07:31:00;;;;;;;;;;;18.00;1.00;;;;;;5116822;29;19908;-92
2023/05/10 07:33:31;;;;;;;;;;;18.10;1.00;;;;;;5117235;29;19907;-93
2023/05/10 07:36:05;;;;;;;;;;;17.90;1.00;;;;;;5117085;29;19907;-92
2023/05/10 07:38:40;;;;;;;;;;;18.20;1.00;;;;;;5116801;29;19911;-93
2023/05/10 07:41:12;;;;;;;;;;;18.20;1.00;;;;;;5117016;29;20226;-93
2023/05/10 07:43:45;;;;;;;;;;;18.40;1.00;;;;;;5116793;29;19906;-93
2023/05/10 07:46:19;;;;;;;;;;;18.10;1.00;;;;;;5116426;29;20085;-92
2023/05/10 07:48:50;;;;;;;;;;;18.30;1.00;;;;;;5115662;29;19911;-94
2023/05/10 07:51:21;;;;;;;;;;;18.60;1.00;;;;;;5117463;29;19913;-92
2023/05/10 07:53:54;;;;;;;;;;;18.80;1.00;;;;;;5134716;29;19907;-90
2023/05/10 07:56:31;;;;;;;;;;;19.10;1.00;;;;;;5117242;29;19913;-92
2023/05/10 07:59:06;;;;;;;;;;;19.40;1.00;;;;;;5133261;29;19906;-90
2023/05/10 08:01:37;;;;;;;;;;;19.00;1.00;;;;;;5145458;28;19909;-90
2023/05/10 08:04:09;;;;;;;;;;;18.70;1.00;;;;;;5140288;28;20100;-91
2023/05/10 08:06:43;;;;;;;;;;;18.50;1.00;;;;;;5107734;28;19916;-91
2023/05/10 08:09:15;;;;;;;;;;;18.60;1.00;;;;;;5140516;28;19910;-93
2023/05/10 08:11:52;;;;;;;;;;;18.80;1.00;;;;;;5124066;28;19906;-91
2023/05/10 08:14:29;;;;;;;;;;;18.90;1.00;;;;;;5130284;28;19913;-93
2023/05/10 08:17:01;;;;;;;;;;;18.70;1.00;;;;;;5086159;29;19906;-91
2023/05/10 08:19:34;;;;;;;;;;;19.20;1.00;;;;;;5151432;28;19907;-94
2023/05/10 08:22:11;;;;;;;;;;;19.30;1.00;;;;;;5087568;29;19913;-93
2023/05/10 08:24:43;;;;;;;;;;;19.20;1.00;;;;;;5087540;29;19906;-92
2023/05/10 08:27:14;;;;;;;;;;;19.70;1.00;;;;;;5103543;29;19921;-91
2023/05/10 08:29:51;;;;;;;;;;;20.20;1.00;;;;;;5135054;29;19913;-93
2023/05/10 08:32:25;;;;;;;;;;;19.70;1.00;;;;;;5135187;29;20210;-92
2023/05/10 08:35:03;;;;;;;;;;;20.40;1.00;;;;;;5087648;29;19907;-92
2023/05/10 08:37:37;;;;;;;;;;;20.20;1.00;;;;;;5086954;29;20100;-91
2023/05/10 08:40:11;;;;;;;;;;;20.00;1.00;;;;;;5102774;29;19906;-93
2023/05/10 08:42:54;;;;;;;;;;;20.00;1.00;;;;;;5087558;29;20358;-92
2023/05/10 08:45:51;;;;;;;;;;;19.90;1.00;;;;;;5103120;29;19913;-92
2023/05/10 08:48:29;;;;;;;;;;;20.50;1.00;;;;;;5119183;29;19921;-91
2023/05/10 08:51:01;;;;;;;;;;;21.40;1.00;;;;;;5103322;29;19925;-91
2023/05/10 08:53:35;;;;;;;;;;;20.80;1.00;;;;;;5087738;29;19913;-92
2023/05/10 08:56:13;;;;;;;;;;;19.70;1.00;;;;;;5102596;29;19907;-93
2023/05/10 08:58:46;;;;;;;;;;;19.80;1.00;;;;;;5086768;29;20087;-91
2023/05/10 09:04:31;;;;;;;;;;;20.70;1.00;;;;;;5115279;28;20234;-91
2023/05/10 09:07:06;;;;;;;;;;;21.10;1.00;;;;;;5154384;28;19924;-92
2023/05/10 09:09:43;;;;;;;;;;;21.10;1.00;;;;;;5122781;29;19906;-91
2023/05/10 09:12:17;;;;;;;;;;;20.70;1.00;;;;;;5122590;29;19917;-91
2023/05/10 09:14:51;;;;;;;;;;;20.90;1.00;;;;;;5122914;29;19913;-91
2023/05/10 09:17:23;;;;;;;;;;;20.80;1.00;;;;;;5123093;29;19906;-93
2023/05/10 09:20:03;;;;;;;;;;;21.50;1.00;;;;;;5122163;29;19906;-91
2023/05/10 09:22:39;;;;;;;;;;;21.60;1.00;;;;;;5122354;28;19906;-92
2023/05/10 09:25:15;;;;;;;;;;;21.70;1.00;;;;;;5122825;29;19918;-92
2023/05/10 09:27:48;;;;;;;;;;;21.30;1.00;;;;;;5122734;29;19910;-92
2023/05/10 09:30:28;;;;;;;;;;;20.50;1.00;;;;;;5121932;29;19906;-91
2023/05/10 09:33:02;;;;;;;;;;;20.70;1.00;;;;;;5122440;29;19906;-92
2023/05/10 09:35:37;;;;;;;;;;;21.50;1.00;;;;;;5108629;29;19911;-91
2023/05/10 09:38:11;;;;;;;;;;;21.20;1.00;;;;;;5130859;28;20091;-91
2023/05/10 09:40:54;;;;;;;;;;;21.20;1.00;;;;;;5142104;28;20180;-92
2023/05/10 09:43:25;;;;;;;;;;;21.20;1.00;;;;;;5142261;28;19913;-91
2023/05/10 09:49:24;;;;;;;;;;;21.70;1.00;;;;;;5158051;28;20221;-91
2023/05/10 09:52:01;;;;;;;;;;;22.10;1.00;;;;;;5142246;28;20072;-90
2023/05/10 09:54:33;;;;;;;;;;;22.00;1.00;;;;;;5142668;28;19906;-92
2023/05/10 09:57:04;;;;;;;;;;;21.00;1.00;;;;;;5141769;28;19906;-92
2023/05/10 09:59:45;;;;;;;;;;;21.00;1.00;;;;;;5141909;28;19906;-90
2023/05/10 10:02:19;;;;;;;;;;;21.10;1.00;;;;;;5141580;28;19917;-91
2023/05/10 10:04:51;;;;;;;;;;;21.70;1.00;;;;;;5136048;28;19916;-92
2023/05/10 10:07:25;;;;;;;;;;;21.80;1.00;;;;;;5141264;28;20127;-91
2023/05/10 10:10:02;;;;;;;;;;;21.80;1.00;;;;;;5141720;28;19913;-90
2023/05/10 10:12:37;;;;;;;;;;;21.90;1.00;;;;;;5127203;28;20075;-90
2023/05/10 10:15:11;;;;;;;;;;;22.50;1.00;;;;;;5141662;28;19906;-91
2023/05/10 10:17:43;;;;;;;;;;;22.60;1.00;;;;;;5142213;28;19906;-91
2023/05/10 10:20:18;;;;;;;;;;;22.80;1.00;;;;;;5141677;28;19906;-90
2023/05/10 10:22:49;;;;;;;;;;;22.70;1.00;;;;;;5142070;28;19906;-91
2023/05/10 10:25:24;;;;;;;;;;;22.70;1.00;;;;;;5141215;28;19906;-92
2023/05/10 10:28:10;;;;;;;;;;;21.90;1.00;;;;;;5141870;28;19916;-91
2023/05/10 10:30:44;;;;;;;;;;;21.80;1.00;;;;;;5141694;28;19906;-92
2023/05/10 10:33:33;;;;;;;;;;;22.20;1.00;;;;;;5141192;28;20196;-91
2023/05/10 10:36:07;;;;;;;;;;;23.00;1.00;;;;;;5125138;28;19912;-91
2023/05/10 10:38:48;;;;;;;;;;;23.60;1.00;;;;;;5140880;28;19913;-93
2023/05/10 10:41:42;;;;;;;;;;;24.00;1.00;;;;;;5173167;28;20099;-91
2023/05/10 10:44:38;;;;;;;;;;;24.30;1.00;;;;;;5157089;28;19924;-92
2023/05/10 10:47:18;;;;;;;;;;;24.00;1.00;;;;;;5141157;28;19910;-91
2023/05/10 10:49:56;;;;;;;;;;;24.20;1.00;;;;;;5173333;28;19906;-92
2023/05/10 10:52:33;;;;;;;;;;;23.60;1.00;;;;;;5141484;28;19906;-91
2023/05/10 10:55:18;;;;;;;;;;;23.50;1.00;;;;;;5173131;28;19912;-92
2023/05/10 10:57:55;;;;;;;;;;;24.10;1.00;;;;;;5125861;28;19910;-91
2023/05/10 11:00:31;;;;;;;;;;;23.80;1.00;;;;;;5136463;29;19913;-91
2023/05/10 11:03:06;;;;;;;;;;;23.70;1.00;;;;;;5137516;28;19911;-93
2023/05/10 11:05:47;;;;;;;;;;;23.40;1.00;;;;;;5130697;28;20215;-92
2023/05/10 11:08:30;;;;;;;;;;;23.20;1.00;;;;;;5123884;29;19917;-92
2023/05/10 11:11:08;;;;;;;;;;;23.70;1.00;;;;;;5136507;29;19913;-93
2023/05/10 11:13:44;;;;;;;;;;;24.40;1.00;;;;;;5121060;29;20192;-93
2023/05/10 11:16:26;;;;;;;;;;;24.00;1.00;;;;;;5121043;29;19912;-93
2023/05/10 11:19:06;;;;;;;;;;;23.00;1.00;;;;;;5136701;29;19907;-94
2023/05/10 11:21:53;;;;;;;;;;;24.00;1.00;;;;;;5136350;29;19913;-94
2023/05/10 11:24:27;;;;;;;;;;;25.20;1.00;;;;;;5137382;28;19913;-92
2023/05/10 11:27:02;;;;;;;;;;;25.20;1.00;;;;;;5120209;29;19928;-94
2023/05/10 11:29:33;;;;;;;;;;;24.30;1.00;;;;;;5137667;28;19907;-94
2023/05/10 11:32:08;;;;;;;;;;;22.80;1.00;;;;;;5126526;28;19917;-91
2023/05/10 11:34:47;;;;;;;;;;;23.60;1.00;;;;;;5121110;29;19906;-91
2023/05/10 11:37:20;;;;;;;;;;;23.40;1.00;;;;;;5137079;28;19906;-90
2023/05/10 11:39:56;;;;;;;;;;;22.70;1.00;;;;;;5127866;28;19910;-93
2023/05/10 11:42:31;;;;;;;;;;;22.40;1.00;;;;;;5137639;28;19906;-90
2023/05/10 11:45:02;;;;;;;;;;;22.20;1.00;;;;;;5105405;28;19910;-91
2023/05/10 11:47:36;;;;;;;;;;;22.90;1.00;;;;;;5137384;28;19933;-92
2023/05/10 11:50:12;;;;;;;;;;;22.70;1.00;;;;;;5122029;28;19964;-92
2023/05/10 11:52:44;;;;;;;;;;;22.50;1.00;;;;;;5145146;29;19906;-94
2023/05/10 11:55:18;;;;;;;;;;;22.50;1.00;;;;;;5126877;29;19911;-94
2023/05/10 11:58:23;;;;;;;;;;;23.20;1.00;;;;;;5126292;29;19921;-94
2023/05/10 12:00:59;;;;;;;;;;;23.60;1.00;;;;;;5156123;28;19913;-94
2023/05/10 12:03:42;;;;;;;;;;;24.20;1.00;;;;;;5140808;28;19910;-92
2023/05/10 12:06:16;;;;;;;;;;;24.70;1.00;;;;;;5132282;23;19960;-63
2023/05/10 12:08:52;;;;;;;;;;;25.80;1.00;;;;;;5118701;29;19922;-69
2023/05/10 12:11:28;;;;;;;;;;;24.00;1.00;;;;;;5137642;28;19991;-68
2023/05/10 12:14:04;;;;;;;;;;;24.00;1.00;;;;;;5137263;28;19922;-68
2023/05/10 12:16:39;;;;;;;;;;;23.80;1.00;;;;;;5130748;28;19979;-68
2023/05/10 12:19:13;;;;;;;;;;;23.40;1.00;;;;;;5132433;28;19922;-70
2023/05/10 12:21:44;;;;;;;;;;;22.90;1.00;;;;;;5148232;28;19914;-69
2023/05/10 12:24:17;;;;;;;;;;;22.10;1.00;;;;;;5136312;28;19929;-70
2023/05/10 12:26:51;;;;;;;;;;;21.30;1.00;;;;;;5111099;28;20158;-71
2023/05/10 12:29:22;;;;;;;;;;;21.60;1.00;;;;;;5116387;28;19922;-69
2023/05/10 12:32:01;;;;;;;;;;;22.60;1.00;;;;;;5136097;28;19925;-68
2023/05/10 12:34:34;;;;;;;;;;;23.20;1.00;;;;;;5122940;29;19918;-70
2023/05/10 12:37:08;;;;;;;;;;;23.70;1.00;;;;;;5119987;28;20245;-68
2023/05/10 12:39:41;;;;;;;;;;;24.50;1.00;;;;;;5113461;28;19918;-70
2023/05/10 12:42:18;;;;;;;;;;;24.70;1.00;;;;;;5122118;29;20293;-71
2023/05/10 12:44:52;;;;;;;;;;;25.80;1.00;;;;;;5103981;29;19922;-67
2023/05/10 12:47:24;;;;;;;;;;;25.90;1.00;;;;;;5119115;29;19911;-72
2023/05/10 12:49:55;;;;;;;;;;;25.70;1.00;;;;;;5121780;28;19918;-68
2023/05/10 12:52:32;;;;;;;;;;;27.20;1.00;;;;;;5135881;28;19922;-71
2023/05/10 12:55:04;;;;;;;;;;;27.10;1.00;;;;;;5150779;28;19928;-69
2023/05/10 12:57:38;;;;;;;;;;;26.40;1.00;;;;;;5104144;29;19919;-69
2023/05/10 13:00:15;;;;;;;;;;;25.60;1.00;;;;;;5120551;29;19922;-70
2023/05/10 13:02:52;;;;;;;;;;;25.70;1.00;;;;;;5122876;28;19914;-70
2023/05/10 13:05:27;;;;;;;;;;;25.20;1.00;;;;;;5105088;28;19948;-67
2023/05/10 13:07:58;;;;;;;;;;;25.60;1.00;;;;;;5120598;28;20358;-70
2023/05/10 13:10:33;;;;;;;;;;;27.10;1.00;;;;;;5111737;29;19925;-70
2023/05/10 13:13:05;;;;;;;;;;;28.00;1.00;;;;;;5104429;29;19911;-68
2023/05/10 13:15:36;;;;;;;;;;;27.50;1.00;;;;;;5100014;29;19917;-70
2023/05/10 13:18:08;;;;;;;;;;;27.30;1.00;;;;;;5131072;28;19922;-68
2023/05/10 13:20:39;;;;;;;;;;;27.00;1.00;;;;;;5102611;29;19921;-68
2023/05/10 13:23:10;;;;;;;;;;;27.60;1.00;;;;;;5110663;29;20079;-70
2023/05/10 13:25:42;;;;;;;;;;;28.20;1.00;;;;;;5114768;29;20231;-70
2023/05/10 13:28:13;;;;;;;;;;;28.40;1.00;;;;;;5113856;29;19923;-70
2023/05/10 13:30:47;;;;;;;;;;;28.30;1.00;;;;;;5118084;29;19932;-68
2023/05/10 13:33:20;;;;;;;;;;;27.20;1.00;;;;;;5117974;29;19923;-69
2023/05/10 13:35:54;;;;;;;;;;;26.70;1.00;;;;;;5119476;29;19922;-70
2023/05/10 13:38:31;;;;;;;;;;;27.10;1.00;;;;;;5114909;29;20108;-68
2023/05/10 13:41:05;;;;;;;;;;;26.40;1.00;;;;;;5106353;29;19922;-69
2023/05/10 13:43:37;;;;;;;;;;;26.50;1.00;;;;;;5122336;29;19945;-71
2023/05/10 13:46:08;;;;;;;;;;;26.00;1.00;;;;;;5120378;29;19927;-68
2023/05/10 13:48:41;;;;;;;;;;;26.80;1.00;;;;;;5122615;29;19924;-69
2023/05/10 13:51:13;;;;;;;;;;;26.80;1.00;;;;;;5133929;28;19926;-70
2023/05/10 13:53:44;;;;;;;;;;;24.50;1.00;;;;;;5121758;29;19910;-69
2023/05/10 13:56:20;;;;;;;;;;;24.00;1.00;;;;;;5114176;28;20392;-69
2023/05/10 13:58:58;;;;;;;;;;;24.50;1.00;;;;;;5117375;29;19923;-70
2023/05/10 14:01:29;;;;;;;;;;;23.80;1.00;;;;;;5110018;29;19926;-69
2023/05/10 14:04:06;;;;;;;;;;;23.70;1.00;;;;;;5118841;29;19918;-71
2023/05/10 14:06:38;;;;;;;;;;;24.90;1.00;;;;;;5112154;28;19926;-69
2023/05/10 14:09:19;;;;;;;;;;;26.00;1.00;;;;;;5113470;29;19927;-70
2023/05/10 14:11:51;;;;;;;;;;;27.30;1.00;;;;;;5114996;29;19917;-70
2023/05/10 14:14:29;;;;;;;;;;;27.00;1.00;;;;;;5115689;28;19933;-72
2023/05/10 14:17:00;;;;;;;;;;;27.30;1.00;;;;;;5124440;28;19910;-68
2023/05/10 14:19:36;;;;;;;;;;;27.10;1.00;;;;;;5103345;29;19910;-70
2023/05/10 14:22:10;;;;;;;;;;;26.70;1.00;;;;;;5134401;28;19923;-69
2023/05/10 14:24:46;;;;;;;;;;;26.80;1.00;;;;;;5079214;29;19911;-71
2023/05/10 14:27:17;;;;;;;;;;;26.70;1.00;;;;;;5119457;29;19956;-69
2023/05/10 14:29:53;;;;;;;;;;;26.10;1.00;;;;;;5116213;29;19922;-68
2023/05/10 14:32:27;;;;;;;;;;;26.10;1.00;;;;;;5114080;29;19929;-66
2023/05/10 14:35:01;;;;;;;;;;;27.10;1.00;;;;;;5111312;29;19910;-72
2023/05/10 14:37:33;;;;;;;;;;;27.60;1.00;;;;;;5131644;28;20013;-68
2023/05/10 14:40:06;;;;;;;;;;;26.40;1.00;;;;;;5102444;29;20466;-69
2023/05/10 14:42:40;;;;;;;;;;;25.80;1.00;;;;;;5102144;29;19911;-69
2023/05/10 14:45:11;;;;;;;;;;;25.10;1.00;;;;;;5089975;29;19910;-67
2023/05/10 14:47:45;;;;;;;;;;;24.60;1.00;;;;;;5100217;29;19937;-70
2023/05/10 14:50:19;;;;;;;;;;;25.60;1.00;;;;;;5103688;29;19918;-69
2023/05/10 14:52:56;;;;;;;;;;;26.10;1.00;;;;;;5081351;29;20107;-67
2023/05/10 14:55:27;;;;;;;;;;;24.70;1.00;;;;;;5060678;29;19918;-68
2023/05/10 14:57:59;;;;;;;;;;;23.90;1.00;;;;;;5115767;29;19937;-67
2023/05/10 15:00:31;;;;;;;;;;;23.60;1.00;;;;;;5110201;29;19919;-67
2023/05/10 15:03:03;;;;;;;;;;;23.20;1.00;;;;;;5109165;29;19918;-70
2023/05/10 15:05:34;;;;;;;;;;;22.80;1.00;;;;;;5093178;28;20124;-68
2023/05/10 15:08:09;;;;;;;;;;;23.20;1.00;;;;;;5131378;28;20402;-66
2023/05/10 15:10:40;;;;;;;;;;;23.20;1.00;;;;;;5103833;29;19919;-68
2023/05/10 15:13:11;;;;;;;;;;;22.20;1.00;;;;;;5117641;28;19921;-68
2023/05/10 15:15:47;;;;;;;;;;;21.90;1.00;;;;;;5109835;29;19924;-68
2023/05/10 15:18:19;;;;;;;;;;;21.90;1.00;;;;;;5101681;28;19917;-68
2023/05/10 15:20:55;;;;;;;;;;;22.00;1.00;;;;;;5111635;29;19926;-69
2023/05/10 15:23:26;;;;;;;;;;;21.90;1.00;;;;;;5086659;29;20222;-67
2023/05/10 15:26:00;;;;;;;;;;;21.80;1.00;;;;;;5112993;28;19919;-68
2023/05/10 15:28:34;;;;;;;;;;;21.30;1.00;;;;;;5101334;29;19917;-69
2023/05/10 15:31:10;;;;;;;;;;;20.90;1.00;;;;;;5129327;28;19920;-69
2023/05/10 15:33:44;;;;;;;;;;;20.50;1.00;;;;;;5087843;29;20114;-70